createdAt,value
2018-11-28T00:02:25.523Z,-3.80
2018-11-28T00:04:53.591Z,-3.80
2018-11-28T00:07:21.635Z,-3.80
2018-11-28T00:09:49.696Z,-3.80
2018-11-28T00:12:18.205Z,-3.80
2018-11-28T00:14:46.791Z,-3.80
2018-11-28T00:17:14.910Z,-3.80
2018-11-28T00:19:43.445Z,-3.80
2018-11-28T00:22:11.780Z,-3.80
2018-11-28T00:24:39.815Z,-3.80
2018-11-28T00:27:08.176Z,-3.80
2018-11-28T00:29:36.354Z,-3.80
2018-11-28T00:32:05.070Z,-3.80
2018-11-28T00:34:33.191Z,-3.80
2018-11-28T00:37:01.256Z,-3.90
2018-11-28T00:39:29.441Z,-3.90
2018-11-28T00:41:57.522Z,-3.90
2018-11-28T00:44:25.793Z,-4.00
2018-11-28T00:46:53.842Z,-4.00
2018-11-28T00:49:21.854Z,-4.00
2018-11-28T00:51:49.883Z,-4.10
2018-11-28T00:56:52.572Z,-4.10
2018-11-28T00:59:21.019Z,-4.10
2018-11-28T01:01:49.288Z,-4.00
2018-11-28T01:04:17.368Z,-3.90
2018-11-28T01:06:45.566Z,-3.90
2018-11-28T01:09:13.593Z,-3.90
2018-11-28T01:11:41.771Z,-3.90
2018-11-28T01:14:09.917Z,-3.90
2018-11-28T01:16:38.007Z,-3.90
2018-11-28T01:19:06.005Z,-3.90
2018-11-28T01:21:34.000Z,-4.00
2018-11-28T01:24:02.104Z,-4.00
2018-11-28T01:26:30.224Z,-4.10
2018-11-28T01:28:58.286Z,-4.10
2018-11-28T01:31:26.344Z,-4.10
2018-11-28T01:33:54.489Z,-4.10
2018-11-28T01:36:22.651Z,-4.10
2018-11-28T01:38:50.642Z,-4.10
2018-11-28T01:41:18.635Z,-4.10
2018-11-28T01:43:46.640Z,-4.10
2018-11-28T01:46:14.726Z,-4.10
2018-11-28T01:48:42.800Z,-4.20
2018-11-28T01:51:11.022Z,-4.20
2018-11-28T01:53:39.181Z,-4.10
2018-11-28T01:56:07.312Z,-4.10
2018-11-28T01:58:35.424Z,-4.20
2018-11-28T02:01:03.695Z,-4.20
2018-11-28T02:03:32.124Z,-4.20
2018-11-28T02:06:00.181Z,-4.20
2018-11-28T02:08:28.261Z,-4.20
2018-11-28T02:10:56.458Z,-4.10
2018-11-28T02:13:24.543Z,-4.00
2018-11-28T02:15:52.737Z,-4.00
2018-11-28T02:18:20.737Z,-3.90
2018-11-28T02:20:48.682Z,-4.10
2018-11-28T02:23:16.670Z,-4.10
2018-11-28T02:25:44.826Z,-4.10
2018-11-28T02:28:12.813Z,-4.10
2018-11-28T02:30:40.835Z,-4.10
2018-11-28T02:33:08.887Z,-4.10
2018-11-28T02:35:37.100Z,-4.00
2018-11-28T02:38:05.299Z,-4.00
2018-11-28T02:40:33.442Z,-4.10
2018-11-28T02:43:01.457Z,-4.10
2018-11-28T02:45:29.581Z,-4.10
2018-11-28T02:47:57.527Z,-4.10
2018-11-28T02:50:25.728Z,-4.10
2018-11-28T02:52:53.926Z,-4.10
2018-11-28T02:55:22.008Z,-4.20
2018-11-28T02:57:50.318Z,-4.10
2018-11-28T03:00:23.080Z,-4.10
2018-11-28T03:02:51.322Z,-4.10
2018-11-28T03:05:19.521Z,-4.00
2018-11-28T03:07:47.587Z,-4.10
2018-11-28T03:10:16.737Z,-4.10
2018-11-28T03:12:44.809Z,-4.10
2018-11-28T03:15:18.814Z,-4.10
2018-11-28T03:17:46.818Z,-4.10
2018-11-28T03:20:14.846Z,-4.10
2018-11-28T03:22:42.936Z,-4.10
2018-11-28T03:25:11.516Z,-4.10
2018-11-28T03:27:41.399Z,-4.10
2018-11-28T03:30:16.645Z,-4.00
2018-11-28T03:32:52.046Z,-4.00
2018-11-28T03:35:21.801Z,-4.00
2018-11-28T03:37:48.591Z,-4.00
2018-11-28T03:40:16.805Z,-4.10
2018-11-28T03:42:45.910Z,-4.10
2018-11-28T03:45:16.092Z,-4.10
2018-11-28T03:47:44.948Z,-4.10
2018-11-28T03:50:14.378Z,-4.10
2018-11-28T03:52:42.424Z,-4.10
2018-11-28T03:55:13.517Z,-4.00
2018-11-28T03:57:41.859Z,-4.10
2018-11-28T04:00:18.897Z,-4.10
2018-11-28T04:02:47.252Z,-4.10
2018-11-28T04:05:15.493Z,-4.10
2018-11-28T04:07:43.666Z,-4.10
2018-11-28T04:10:12.556Z,-4.10
2018-11-28T04:12:41.150Z,-4.10
2018-11-28T04:15:16.119Z,-4.10
2018-11-28T04:17:45.143Z,-4.10
2018-11-28T04:20:15.121Z,-4.00
2018-11-28T04:22:43.271Z,-4.10
2018-11-28T04:25:12.158Z,-4.00
2018-11-28T04:27:40.346Z,-4.00
2018-11-28T04:30:18.825Z,-3.90
2018-11-28T04:32:47.564Z,-3.90
2018-11-28T04:35:15.753Z,-3.90
2018-11-28T04:37:44.692Z,-3.80
2018-11-28T04:40:15.563Z,-3.90
2018-11-28T04:42:44.140Z,-3.90
2018-11-28T04:45:18.643Z,-3.90
2018-11-28T04:47:46.916Z,-3.80
2018-11-28T04:50:15.249Z,-3.80
2018-11-28T04:52:43.347Z,-3.80
2018-11-28T04:55:14.430Z,-3.80
2018-11-28T04:57:42.603Z,-3.80
2018-11-28T05:00:29.474Z,-3.80
2018-11-28T05:02:58.149Z,-3.80
2018-11-28T05:05:26.416Z,-3.80
2018-11-28T05:07:54.627Z,-3.80
2018-11-28T05:10:26.644Z,-3.80
2018-11-28T05:12:55.731Z,-3.80
2018-11-28T05:15:26.484Z,-3.70
2018-11-28T05:17:54.869Z,-3.70
2018-11-28T05:20:27.737Z,-3.60
2018-11-28T05:22:55.955Z,-3.60
2018-11-28T05:25:25.919Z,-3.70
2018-11-28T05:27:55.858Z,-3.70
2018-11-28T05:30:26.016Z,-3.70
2018-11-28T05:32:54.748Z,-3.70
2018-11-28T05:35:25.355Z,-3.70
2018-11-28T05:37:53.734Z,-3.70
2018-11-28T05:40:23.217Z,-3.70
2018-11-28T05:42:51.640Z,-3.70
2018-11-28T05:45:20.181Z,-3.80
2018-11-28T05:47:48.600Z,-3.70
2018-11-28T05:50:19.034Z,-3.60
2018-11-28T05:52:47.157Z,-3.60
2018-11-28T05:55:16.176Z,-3.60
2018-11-28T05:57:44.355Z,-3.60
2018-11-28T06:00:36.970Z,-3.60
2018-11-28T06:03:06.825Z,-3.50
2018-11-28T06:05:34.939Z,-3.50
2018-11-28T06:08:03.085Z,-3.40
2018-11-28T06:10:31.328Z,-3.40
2018-11-28T06:12:59.573Z,-3.50
2018-11-28T06:15:27.713Z,-3.50
2018-11-28T06:17:56.002Z,-3.50
2018-11-28T06:20:24.079Z,-3.50
2018-11-28T06:22:52.607Z,-3.50
2018-11-28T06:25:20.885Z,-3.50
2018-11-28T06:27:49.106Z,-3.50
2018-11-28T06:30:19.632Z,-3.60
2018-11-28T06:32:51.271Z,-3.60
2018-11-28T06:35:16.262Z,-3.60
2018-11-28T06:37:44.562Z,-3.70
2018-11-28T06:40:15.629Z,-3.70
2018-11-28T06:42:44.815Z,-3.70
2018-11-28T06:45:15.316Z,-3.70
2018-11-28T06:47:43.500Z,-3.70
2018-11-28T06:50:13.995Z,-3.80
2018-11-28T06:52:42.740Z,-3.80
2018-11-28T06:55:12.366Z,-3.90
2018-11-28T06:57:40.388Z,-3.90
2018-11-28T07:00:13.067Z,-4.00
2018-11-28T07:02:41.433Z,-4.00
2018-11-28T07:05:10.210Z,-4.00
2018-11-28T07:07:38.410Z,-4.00
2018-11-28T07:10:10.219Z,-4.00
2018-11-28T07:12:38.515Z,-4.00
2018-11-28T07:15:09.611Z,-3.90
2018-11-28T07:17:37.946Z,-3.90
2018-11-28T07:20:07.367Z,-3.90
2018-11-28T07:22:35.883Z,-3.90
2018-11-28T07:25:04.903Z,-4.00
2018-11-28T07:27:33.654Z,-3.90
2018-11-28T07:30:01.979Z,-3.90
2018-11-28T07:32:30.178Z,-3.90
2018-11-28T07:34:58.408Z,-3.90
2018-11-28T07:37:26.553Z,-3.90
2018-11-28T07:39:54.926Z,-3.90
2018-11-28T07:42:23.066Z,-3.80
2018-11-28T07:44:51.692Z,-3.80
2018-11-28T07:47:19.884Z,-3.80
2018-11-28T07:49:48.406Z,-3.70
2018-11-28T07:52:16.853Z,-3.70
2018-11-28T07:54:45.998Z,-3.60
2018-11-28T07:57:14.219Z,-3.60
2018-11-28T07:59:42.602Z,-3.60
2018-11-28T08:02:10.817Z,-3.60
2018-11-28T08:04:39.244Z,-3.50
2018-11-28T08:07:08.462Z,-3.60
2018-11-28T08:09:36.816Z,-3.50
2018-11-28T08:12:06.180Z,-3.40
2018-11-28T08:14:34.807Z,-3.30
2018-11-28T08:17:02.922Z,-3.30
2018-11-28T08:19:30.980Z,-3.30
2018-11-28T08:21:59.082Z,-3.20
2018-11-28T08:24:27.167Z,-3.10
2018-11-28T08:26:55.266Z,-3.10
2018-11-28T08:29:23.695Z,-3.00
2018-11-28T08:31:52.062Z,-3.00
2018-11-28T08:34:20.195Z,-3.00
2018-11-28T08:36:48.420Z,-3.00
2018-11-28T08:39:16.556Z,-3.10
2018-11-28T08:41:44.752Z,-3.00
2018-11-28T08:44:12.768Z,-3.10
2018-11-28T08:46:40.974Z,-3.20
2018-11-28T08:49:09.291Z,-3.20
2018-11-28T08:51:37.702Z,-3.20
2018-11-28T08:54:05.897Z,-3.10
2018-11-28T08:56:34.117Z,-3.10
2018-11-28T08:59:02.280Z,-3.10
2018-11-28T09:01:30.512Z,-3.10
2018-11-28T09:03:58.653Z,-3.10
2018-11-28T09:06:27.061Z,-3.10
2018-11-28T09:08:55.263Z,-3.00
2018-11-28T09:11:23.582Z,-2.90
2018-11-28T09:13:52.453Z,-2.80
2018-11-28T09:16:21.884Z,-2.70
2018-11-28T09:18:50.075Z,-2.70
2018-11-28T09:21:18.264Z,-2.70
2018-11-28T09:23:46.475Z,-2.70
2018-11-28T09:26:18.853Z,-2.60
2018-11-28T09:28:48.287Z,-2.50
2018-11-28T09:31:16.716Z,-2.50
2018-11-28T09:33:45.041Z,-2.60
2018-11-28T09:36:13.460Z,-2.50
2018-11-28T09:38:43.339Z,-2.50
2018-11-28T09:41:11.399Z,-2.40
2018-11-28T09:43:39.525Z,-2.30
2018-11-28T09:46:07.892Z,-2.30
2018-11-28T09:48:36.125Z,-2.20
2018-11-28T09:51:04.167Z,-2.10
2018-11-28T09:53:32.410Z,-2.20
2018-11-28T09:56:00.727Z,-2.20
2018-11-28T09:58:29.066Z,-2.20
2018-11-28T10:00:57.273Z,-2.20
2018-11-28T10:03:25.710Z,-2.20
2018-11-28T10:05:54.046Z,-2.30
2018-11-28T10:08:22.369Z,-2.30
2018-11-28T10:10:50.743Z,-2.30
2018-11-28T10:13:19.194Z,-2.30
2018-11-28T10:15:47.513Z,-2.20
2018-11-28T10:18:16.006Z,-2.30
2018-11-28T10:20:44.332Z,-2.20
2018-11-28T10:23:12.486Z,-2.20
2018-11-28T10:25:40.707Z,-2.30
2018-11-28T10:28:08.861Z,-2.20
2018-11-28T10:30:38.110Z,-2.20
2018-11-28T10:33:11.313Z,-2.20
2018-11-28T10:35:40.238Z,-2.10
2018-11-28T10:38:08.467Z,-2.10
2018-11-28T10:40:36.987Z,-2.10
2018-11-28T10:43:06.173Z,-2.00
2018-11-28T10:45:34.638Z,-2.00
2018-11-28T10:48:02.927Z,-1.90
2018-11-28T10:50:31.269Z,-1.80
2018-11-28T10:52:59.643Z,-1.70
2018-11-28T10:55:28.298Z,-1.60
2018-11-28T10:57:56.644Z,-1.60
2018-11-28T11:00:34.313Z,-1.70
2018-11-28T11:03:08.020Z,-1.60
2018-11-28T11:05:41.639Z,-1.50
2018-11-28T11:08:15.382Z,-1.50
2018-11-28T11:10:49.051Z,-1.40
2018-11-28T11:13:22.666Z,-1.40
2018-11-28T11:15:54.803Z,-1.40
2018-11-28T11:18:23.225Z,-1.40
2018-11-28T11:20:51.408Z,-1.40
2018-11-28T11:23:19.557Z,-1.40
2018-11-28T11:25:49.342Z,-1.40
2018-11-28T11:28:17.672Z,-1.30
2018-11-28T11:30:45.987Z,-1.30
2018-11-28T11:33:14.656Z,-1.20
2018-11-28T11:35:43.757Z,-1.20
2018-11-28T11:38:12.194Z,-1.30
2018-11-28T11:40:40.375Z,-1.30
2018-11-28T11:43:09.137Z,-1.20
2018-11-28T11:45:37.343Z,-1.20
2018-11-28T11:48:05.834Z,-1.10
2018-11-28T11:50:34.315Z,-1.10
2018-11-28T11:53:02.573Z,-1.10
2018-11-28T11:55:30.834Z,-1.00
2018-11-28T11:57:59.108Z,-1.10
2018-11-28T12:00:27.615Z,-1.10
2018-11-28T12:03:06.872Z,-1.10
2018-11-28T12:05:35.134Z,-1.10
2018-11-28T12:08:04.178Z,-1.10
2018-11-28T12:10:32.311Z,-1.00
2018-11-28T12:13:00.625Z,-1.00
2018-11-28T12:15:28.872Z,-0.90
2018-11-28T12:17:56.923Z,-0.90
2018-11-28T12:20:32.205Z,-0.90
2018-11-28T12:23:00.346Z,-0.90
2018-11-28T12:25:28.475Z,-0.90
2018-11-28T12:27:56.563Z,-0.90
2018-11-28T12:30:24.693Z,-0.90
2018-11-28T12:32:52.940Z,-0.80
2018-11-28T12:35:21.295Z,-0.80
2018-11-28T12:37:49.360Z,-0.80
2018-11-28T12:40:17.827Z,-0.80
2018-11-28T12:42:49.485Z,-0.90
2018-11-28T12:45:18.635Z,-0.90
2018-11-28T12:47:47.211Z,-0.80
2018-11-28T12:50:19.555Z,-0.80
2018-11-28T12:52:48.030Z,-0.80
2018-11-28T12:55:17.036Z,-0.70
2018-11-28T12:57:45.321Z,-0.70
2018-11-28T13:00:14.931Z,-0.70
2018-11-28T13:02:43.245Z,-0.70
2018-11-28T13:05:13.095Z,-0.70
2018-11-28T13:07:41.317Z,-0.70
2018-11-28T13:10:11.067Z,-0.70
2018-11-28T13:12:39.433Z,-0.70
2018-11-28T13:15:10.445Z,-0.70
2018-11-28T13:17:38.466Z,-0.70
2018-11-28T13:20:08.658Z,-0.70
2018-11-28T13:22:37.906Z,-0.70
2018-11-28T13:25:08.120Z,-0.80
2018-11-28T13:27:36.285Z,-0.70
2018-11-28T13:30:12.041Z,-0.60
2018-11-28T13:32:40.922Z,-0.70
2018-11-28T13:35:09.526Z,-0.70
2018-11-28T13:37:37.851Z,-0.80
2018-11-28T13:40:09.138Z,-0.80
2018-11-28T13:42:37.271Z,-0.80
2018-11-28T13:45:11.786Z,-0.80
2018-11-28T13:47:39.929Z,-0.80
2018-11-28T13:50:10.838Z,-0.80
2018-11-28T13:52:39.296Z,-0.80
2018-11-28T13:55:42.254Z,-0.80
2018-11-28T13:57:41.075Z,-0.70
2018-11-28T14:00:09.831Z,-0.70
2018-11-28T14:02:38.577Z,-0.70
2018-11-28T14:05:09.223Z,-0.70
2018-11-28T14:07:37.810Z,-0.80
2018-11-28T14:10:09.661Z,-0.70
2018-11-28T14:12:37.904Z,-0.80
2018-11-28T14:15:16.620Z,-0.80
2018-11-28T14:20:29.369Z,-0.80
2018-11-28T14:22:57.754Z,-0.80
2018-11-28T14:25:26.404Z,-0.80
2018-11-28T14:27:54.559Z,-0.80
2018-11-28T14:30:23.502Z,-0.80
2018-11-28T14:32:52.161Z,-0.80
2018-11-28T14:35:21.515Z,-0.80
2018-11-28T14:37:49.703Z,-0.90
2018-11-28T14:40:19.688Z,-0.90
2018-11-28T14:42:50.047Z,-0.90
2018-11-28T14:45:18.852Z,-0.90
2018-11-28T14:47:47.719Z,-0.90
2018-11-28T14:50:17.963Z,-0.90
2018-11-28T14:52:46.291Z,-0.90
2018-11-28T14:55:31.095Z,-1.00
2018-11-28T14:57:59.153Z,-1.00
2018-11-28T15:00:29.394Z,-1.00
2018-11-28T15:03:05.703Z,-1.00
2018-11-28T15:06:40.021Z,-0.90
2018-11-28T15:09:15.621Z,-0.90
2018-11-28T15:14:22.158Z,-1.00
2018-11-28T15:16:50.203Z,-1.00
2018-11-28T15:19:18.639Z,-1.00
2018-11-28T15:21:46.935Z,-1.00
2018-11-28T15:24:15.915Z,-1.00
2018-11-28T15:26:44.033Z,-1.00
2018-11-28T15:29:12.046Z,-0.90
2018-11-28T15:31:40.208Z,-1.00
2018-11-28T15:34:08.538Z,-1.00
2018-11-28T15:36:37.145Z,-1.00
2018-11-28T15:39:08.219Z,-1.00
2018-11-28T15:41:37.429Z,-1.10
2018-11-28T15:44:05.954Z,-1.20
2018-11-28T15:46:34.180Z,-1.10
2018-11-28T15:49:02.898Z,-1.20
2018-11-28T15:51:31.162Z,-1.10
2018-11-28T15:53:59.354Z,-1.20
2018-11-28T15:56:27.699Z,-1.10
2018-11-28T15:58:56.312Z,-1.10
2018-11-28T16:01:24.440Z,-1.10
2018-11-28T16:03:52.759Z,-1.10
2018-11-28T16:06:21.105Z,-1.10
2018-11-28T16:08:53.968Z,-1.30
2018-11-28T16:11:23.050Z,-1.20
2018-11-28T16:13:51.500Z,-1.10
2018-11-28T16:16:19.617Z,-1.10
2018-11-28T16:18:47.832Z,-1.10
2018-11-28T16:21:15.962Z,-1.00
2018-11-28T16:23:44.315Z,-1.10
2018-11-28T16:26:12.819Z,-1.00
2018-11-28T16:31:19.390Z,-1.00
2018-11-28T16:33:48.133Z,-1.00
2018-11-28T16:36:17.516Z,-0.70
2018-11-28T16:38:45.815Z,-0.80
2018-11-28T16:41:14.398Z,-0.80
2018-11-28T16:43:43.108Z,-0.80
2018-11-28T16:46:11.837Z,-0.80
2018-11-28T16:48:39.922Z,-0.80
2018-11-28T16:51:08.280Z,-0.80
2018-11-28T16:53:36.334Z,-0.80
2018-11-28T16:56:05.381Z,-0.80
2018-11-28T16:58:33.416Z,-0.70
2018-11-28T17:01:01.641Z,-0.70
2018-11-28T17:03:29.652Z,-0.70
2018-11-28T17:05:58.105Z,-0.80
2018-11-28T17:08:26.599Z,-0.80
2018-11-28T17:10:54.657Z,-0.80
2018-11-28T17:13:23.049Z,-0.80
2018-11-28T17:15:51.194Z,-0.80
2018-11-28T17:18:19.402Z,-0.90
2018-11-28T17:20:47.591Z,-0.80
2018-11-28T17:23:16.022Z,-0.80
2018-11-28T17:25:44.226Z,-0.80
2018-11-28T17:28:12.269Z,-0.80
2018-11-28T17:30:40.385Z,-0.70
2018-11-28T17:33:08.405Z,-0.60
2018-11-28T17:35:36.452Z,-0.60
2018-11-28T17:38:04.882Z,-0.70
2018-11-28T17:40:32.945Z,-0.70
2018-11-28T17:43:01.298Z,-0.70
2018-11-28T17:45:29.826Z,-0.70
2018-11-28T17:47:57.935Z,-0.60
2018-11-28T17:50:26.738Z,-0.70
2018-11-28T17:53:08.266Z,-0.60
2018-11-28T17:55:40.409Z,-0.60
2018-11-28T17:58:08.674Z,-0.60
2018-11-28T18:00:37.014Z,-0.60
2018-11-28T18:03:06.326Z,-0.60
2018-11-28T18:05:34.524Z,-0.70
2018-11-28T18:08:03.628Z,-0.80
2018-11-28T18:10:31.912Z,-0.80
2018-11-28T18:13:13.888Z,-0.90
2018-11-28T18:15:44.836Z,-0.90
2018-11-28T18:18:14.702Z,-0.90
2018-11-28T18:20:42.753Z,-0.90
2018-11-28T18:23:11.047Z,-0.90
2018-11-28T18:25:39.966Z,-0.90
2018-11-28T18:28:08.625Z,-0.70
2018-11-28T18:30:37.517Z,-0.70
2018-11-28T18:33:06.567Z,-0.70
2018-11-28T18:35:34.981Z,-0.60
2018-11-28T18:38:03.189Z,-0.70
2018-11-28T18:40:31.288Z,-0.70
2018-11-28T18:42:59.393Z,-0.80
2018-11-28T18:45:29.292Z,-0.80
2018-11-28T18:47:57.626Z,-0.80
2018-11-28T18:50:25.902Z,-0.80
2018-11-28T18:52:54.634Z,-0.90
2018-11-28T18:55:30.438Z,-0.90
2018-11-28T18:57:58.681Z,-0.90
2018-11-28T19:00:27.657Z,-0.90
2018-11-28T19:02:56.462Z,-0.80
2018-11-28T19:05:25.184Z,-0.70
2018-11-28T19:07:54.676Z,-0.70
2018-11-28T19:10:26.541Z,-0.70
2018-11-28T19:12:53.789Z,-0.80
2018-11-28T19:15:23.060Z,-0.80
2018-11-28T19:17:52.142Z,-0.80
2018-11-28T19:20:22.087Z,-0.90
2018-11-28T19:22:50.760Z,-1.00
2018-11-28T19:25:20.835Z,-1.00
2018-11-28T19:27:49.114Z,-1.10
2018-11-28T19:30:30.737Z,-1.10
2018-11-28T19:32:53.443Z,-1.10
2018-11-28T19:35:21.789Z,-1.10
2018-11-28T19:37:50.030Z,-1.10
2018-11-28T19:40:30.019Z,-1.00
2018-11-28T19:42:58.113Z,-1.00
2018-11-28T19:45:26.389Z,-1.00
2018-11-28T19:47:54.669Z,-0.90
2018-11-28T19:50:25.448Z,-0.90
2018-11-28T19:52:53.758Z,-0.80
2018-11-28T19:55:22.255Z,-0.80
2018-11-28T19:57:50.602Z,-0.80
2018-11-28T20:00:19.532Z,-0.80
2018-11-28T20:02:47.653Z,-0.80
2018-11-28T20:05:19.637Z,-0.80
2018-11-28T20:07:48.871Z,-0.70
2018-11-28T20:10:19.327Z,-0.70
2018-11-28T20:12:47.409Z,-0.60
2018-11-28T20:15:22.990Z,-0.60
2018-11-28T20:17:52.175Z,-0.60
2018-11-28T20:20:21.221Z,-0.60
2018-11-28T20:22:49.630Z,-0.50
2018-11-28T20:25:19.599Z,-0.50
2018-11-28T20:27:51.762Z,-0.40
2018-11-28T20:30:23.641Z,-0.30
2018-11-28T20:32:51.659Z,-0.30
2018-11-28T20:35:20.046Z,-0.40
2018-11-28T20:37:48.797Z,-0.30
2018-11-28T20:40:18.009Z,-0.40
2018-11-28T20:42:48.127Z,-0.50
2018-11-28T20:45:16.817Z,-0.60
2018-11-28T20:47:45.093Z,-0.50
2018-11-28T20:50:16.666Z,-0.40
2018-11-28T20:52:47.187Z,-0.40
2018-11-28T20:55:15.366Z,-0.30
2018-11-28T20:57:43.407Z,-0.40
2018-11-28T21:00:21.129Z,-0.40
2018-11-28T21:02:49.239Z,-0.50
2018-11-28T21:05:17.632Z,-0.50
2018-11-28T21:07:46.818Z,-0.40
2018-11-28T21:10:21.069Z,-0.50
2018-11-28T21:12:49.220Z,-0.50
2018-11-28T21:15:17.433Z,-0.50
2018-11-28T21:17:47.033Z,-0.50
2018-11-28T21:20:17.318Z,-0.40
2018-11-28T21:22:48.438Z,-0.50
2018-11-28T21:25:17.233Z,-0.40
2018-11-28T21:27:47.164Z,-0.40
2018-11-28T21:30:16.997Z,-0.30
2018-11-28T21:32:46.177Z,-0.30
2018-11-28T21:35:18.497Z,-0.30
2018-11-28T21:37:46.672Z,-0.30
2018-11-28T21:40:14.788Z,-0.20
2018-11-28T21:42:43.061Z,-0.20
2018-11-28T21:45:14.373Z,-0.10
2018-11-28T21:47:42.810Z,-0.10
2018-11-28T21:50:13.998Z,0.00
2018-11-28T21:52:42.085Z,0.00
2018-11-28T21:55:19.885Z,0.10
2018-11-28T21:57:48.047Z,0.10
2018-11-28T22:00:18.658Z,0.20
2018-11-28T22:02:46.890Z,0.30
2018-11-28T22:05:15.934Z,0.40
2018-11-28T22:07:44.533Z,0.40
2018-11-28T22:10:28.940Z,0.40
2018-11-28T22:12:56.987Z,0.40
2018-11-28T22:15:25.253Z,0.40
2018-11-28T22:17:55.128Z,0.50
2018-11-28T22:20:24.325Z,0.50
2018-11-28T22:22:52.488Z,0.60
2018-11-28T22:25:25.291Z,0.70
2018-11-28T22:27:53.510Z,0.70
2018-11-28T22:30:27.198Z,0.60
2018-11-28T22:32:55.484Z,0.70
2018-11-28T22:35:23.647Z,0.70
2018-11-28T22:37:52.036Z,0.70
2018-11-28T22:40:25.192Z,0.80
2018-11-28T22:42:53.301Z,0.80
2018-11-28T22:45:22.633Z,0.70
2018-11-28T22:47:50.735Z,0.80
2018-11-28T22:50:18.762Z,0.80
2018-11-28T22:52:47.004Z,0.90
2018-11-28T22:55:16.322Z,1.10
2018-11-28T22:57:45.526Z,1.10
2018-11-28T23:00:16.911Z,1.10
2018-11-28T23:02:53.246Z,1.10
2018-11-28T23:05:22.682Z,1.10
2018-11-28T23:07:50.893Z,1.10
2018-11-28T23:10:19.001Z,1.10
2018-11-28T23:12:47.327Z,1.10
2018-11-28T23:15:15.566Z,1.10
2018-11-28T23:17:43.674Z,1.00
2018-11-28T23:20:12.019Z,1.00
2018-11-28T23:22:40.117Z,1.00
2018-11-28T23:25:09.719Z,0.90
2018-11-28T23:27:38.545Z,0.90
2018-11-28T23:30:18.264Z,1.00
2018-11-28T23:32:47.554Z,1.00
2018-11-28T23:35:15.712Z,1.00
2018-11-28T23:37:44.980Z,0.90
2018-11-28T23:40:15.551Z,0.90
2018-11-28T23:42:43.837Z,0.90
2018-11-28T23:45:12.923Z,1.00
2018-11-28T23:47:41.076Z,1.10
2018-11-28T23:50:14.373Z,1.10
2018-11-28T23:52:42.789Z,1.10
2018-11-28T23:55:16.149Z,1.20
2018-11-28T23:57:44.382Z,1.30
